createdAt,value
2022-11-04T00:02:20.306Z,87940.56
2022-11-04T00:05:05.469Z,87947.34
2022-11-04T00:07:50.219Z,87959.50
2022-11-04T00:10:34.993Z,87949.97
2022-11-04T00:13:19.678Z,87937.28
2022-11-04T00:16:04.379Z,87943.47
2022-11-04T00:18:49.123Z,87961.13
2022-11-04T00:21:33.817Z,87943.88
2022-11-04T00:24:18.646Z,87925.84
2022-11-04T00:27:03.477Z,87920.09
2022-11-04T00:29:48.316Z,87924.50
2022-11-04T00:32:32.979Z,87917.97
2022-11-04T00:35:17.830Z,87920.50
2022-11-04T00:38:02.623Z,87918.09
2022-11-04T00:40:47.469Z,87916.97
2022-11-04T00:43:32.246Z,87903.66
2022-11-04T00:46:17.095Z,87894.84
2022-11-04T00:49:01.828Z,87878.84
2022-11-04T00:51:46.588Z,87881.88
2022-11-04T00:54:31.399Z,87867.72
2022-11-04T00:57:16.146Z,87860.94
2022-11-04T01:00:00.971Z,87850.88
2022-11-04T01:02:45.777Z,87860.22
2022-11-04T01:05:30.431Z,87864.41
2022-11-04T01:08:15.431Z,87845.91
2022-11-04T01:10:59.985Z,87851.09
2022-11-04T01:13:44.835Z,87851.94
2022-11-04T01:16:29.728Z,87845.19
2022-11-04T01:19:14.747Z,87849.97
2022-11-04T01:21:59.491Z,87849.03
2022-11-04T01:24:44.249Z,87851.63
2022-11-04T01:27:28.871Z,87850.03
2022-11-04T01:30:13.669Z,87848.28
2022-11-04T01:32:58.335Z,87842.34
2022-11-04T01:35:43.203Z,87851.91
2022-11-04T01:38:28.032Z,87849.34
2022-11-04T01:41:12.737Z,87836.53
2022-11-04T01:43:57.445Z,87833.75
2022-11-04T01:46:42.150Z,87817.63
2022-11-04T01:49:26.922Z,87818.16
2022-11-04T01:52:11.548Z,87810.03
2022-11-04T01:54:56.407Z,87806.41
2022-11-04T01:57:41.122Z,87801.22
2022-11-04T02:00:25.991Z,87798.28
2022-11-04T02:03:11.083Z,87792.88
2022-11-04T02:05:55.845Z,87787.16
2022-11-04T02:08:40.567Z,87775.88
2022-11-04T02:11:25.309Z,87771.34
2022-11-04T02:14:10.232Z,87771.19
2022-11-04T02:16:54.996Z,87764.44
2022-11-04T02:19:39.806Z,87754.59
2022-11-04T02:22:24.436Z,87760.81
2022-11-04T02:25:09.233Z,87767.38
2022-11-04T02:27:53.982Z,87759.06
2022-11-04T02:30:38.876Z,87761.78
2022-11-04T02:33:23.518Z,87757.22
2022-11-04T02:36:08.412Z,87745.44
2022-11-04T02:38:53.144Z,87740.25
2022-11-04T02:41:37.866Z,87728.66
2022-11-04T02:44:22.526Z,87735.38
2022-11-04T02:47:07.281Z,87734.66
2022-11-04T02:49:52.121Z,87721.66
2022-11-04T02:52:36.816Z,87724.25
2022-11-04T02:55:21.599Z,87708.66
2022-11-04T02:58:06.324Z,87707.59
2022-11-04T03:00:51.142Z,87703.38
2022-11-04T03:03:36.342Z,87704.03
2022-11-04T03:06:21.211Z,87706.78
2022-11-04T03:09:05.962Z,87713.94
2022-11-04T03:11:50.713Z,87714.78
2022-11-04T03:14:35.605Z,87715.72
2022-11-04T03:17:20.372Z,87715.00
2022-11-04T03:20:05.242Z,87707.44
2022-11-04T03:22:49.916Z,87709.00
2022-11-04T03:25:34.831Z,87711.59
2022-11-04T03:28:19.548Z,87714.56
2022-11-04T03:31:04.204Z,87719.75
2022-11-04T03:33:48.854Z,87723.03
2022-11-04T03:36:33.585Z,87716.13
2022-11-04T03:39:18.309Z,87706.25
2022-11-04T03:42:03.082Z,87707.47
2022-11-04T03:44:47.830Z,87709.56
2022-11-04T03:47:32.531Z,87706.56
2022-11-04T03:50:17.285Z,87693.66
2022-11-04T03:53:01.954Z,87684.13
2022-11-04T03:55:46.709Z,87687.06
2022-11-04T03:58:31.396Z,87687.91
2022-11-04T04:01:16.336Z,87695.97
2022-11-04T04:04:01.505Z,87692.81
2022-11-04T04:06:46.259Z,87687.53
2022-11-04T04:09:30.971Z,87687.88
2022-11-04T04:12:15.685Z,87697.88
2022-11-04T04:15:00.552Z,87693.38
2022-11-04T04:17:45.184Z,87700.59
2022-11-04T04:20:30.013Z,87703.69
2022-11-04T04:23:14.678Z,87691.06
2022-11-04T04:25:59.369Z,87689.66
2022-11-04T04:28:44.024Z,87697.47
2022-11-04T04:31:28.765Z,87710.31
2022-11-04T04:34:13.435Z,87699.34
2022-11-04T04:36:58.211Z,87702.69
2022-11-04T04:39:42.908Z,87688.16
2022-11-04T04:42:27.609Z,87686.47
2022-11-04T04:45:12.519Z,87680.59
2022-11-04T04:47:57.124Z,87676.09
2022-11-04T04:50:41.973Z,87667.59
2022-11-04T04:53:26.628Z,87659.63
2022-11-04T04:56:11.400Z,87655.31
2022-11-04T04:58:56.088Z,87649.91
2022-11-04T05:01:41.087Z,87643.88
2022-11-04T05:04:26.200Z,87641.13
2022-11-04T05:07:10.919Z,87639.75
2022-11-04T05:09:55.563Z,87636.94
2022-11-04T05:12:40.428Z,87631.91
2022-11-04T05:15:25.269Z,87639.59
2022-11-04T05:18:10.295Z,87636.47
2022-11-04T05:20:55.268Z,87629.38
2022-11-04T05:23:40.061Z,87631.34
2022-11-04T05:26:25.392Z,87627.72
2022-11-04T05:29:10.101Z,87627.84
2022-11-04T05:31:54.881Z,87629.50
2022-11-04T05:34:39.505Z,87631.31
2022-11-04T05:37:24.352Z,87629.97
2022-11-04T05:40:09.076Z,87626.34
2022-11-04T05:42:53.775Z,87624.97
2022-11-04T05:45:38.615Z,87622.38
2022-11-04T05:48:23.234Z,87620.13
2022-11-04T05:51:07.997Z,87612.72
2022-11-04T05:53:52.641Z,87610.50
2022-11-04T05:56:37.623Z,87616.91
2022-11-04T05:59:22.269Z,87615.72
2022-11-04T06:02:07.130Z,87617.94
2022-11-04T06:04:52.200Z,87624.88
2022-11-04T06:07:37.051Z,87620.69
2022-11-04T06:10:21.950Z,87620.38
2022-11-04T06:13:06.580Z,87620.22
2022-11-04T06:15:51.505Z,87623.50
2022-11-04T06:18:36.145Z,87619.19
2022-11-04T06:21:20.968Z,87618.97
2022-11-04T06:24:05.588Z,87622.63
2022-11-04T06:26:50.353Z,87618.16
2022-11-04T06:29:35.085Z,87614.00
2022-11-04T06:32:19.827Z,87615.75
2022-11-04T06:35:04.519Z,87614.72
2022-11-04T06:37:49.353Z,87612.84
2022-11-04T06:40:34.095Z,87612.63
2022-11-04T06:43:18.835Z,87613.16
2022-11-04T06:46:03.844Z,87613.31
2022-11-04T06:48:48.561Z,87605.25
2022-11-04T06:51:33.325Z,87613.06
2022-11-04T06:54:18.047Z,87609.94
2022-11-04T06:57:02.823Z,87609.09
2022-11-04T06:59:47.532Z,87607.19
2022-11-04T07:02:32.344Z,87600.63
2022-11-04T07:05:17.484Z,87608.94
2022-11-04T07:08:02.263Z,87604.13
2022-11-04T07:10:47.041Z,87611.75
2022-11-04T07:13:31.712Z,87606.38
2022-11-04T07:16:16.587Z,87600.69
2022-11-04T07:19:01.315Z,87599.78
2022-11-04T07:21:46.292Z,87599.59
2022-11-04T07:24:31.025Z,87601.84
2022-11-04T07:27:15.965Z,87598.22
2022-11-04T07:30:00.614Z,87599.97
2022-11-04T07:32:45.410Z,87603.63
2022-11-04T07:35:30.311Z,87601.38
2022-11-04T07:38:15.150Z,87596.72
2022-11-04T07:41:00.169Z,87595.50
2022-11-04T07:43:44.925Z,87593.41
2022-11-04T07:46:29.692Z,87589.97
2022-11-04T07:49:14.427Z,87587.38
2022-11-04T07:51:59.191Z,87571.63
2022-11-04T07:54:43.913Z,87571.28
2022-11-04T07:57:28.861Z,87564.69
2022-11-04T08:00:13.584Z,87570.22
2022-11-04T08:02:58.474Z,87569.00
2022-11-04T08:05:43.215Z,87563.94
2022-11-04T08:08:28.044Z,87568.22
2022-11-04T08:11:17.138Z,87571.59
2022-11-04T08:14:02.491Z,87574.94
2022-11-04T08:16:47.115Z,87576.78
2022-11-04T08:19:31.889Z,87579.19
2022-11-04T08:22:16.507Z,87576.44
2022-11-04T08:25:01.450Z,87563.97
2022-11-04T08:27:46.111Z,87560.34
2022-11-04T08:30:31.004Z,87558.81
2022-11-04T08:33:15.760Z,87554.81
2022-11-04T08:36:00.614Z,87559.84
2022-11-04T08:38:45.281Z,87552.03
2022-11-04T08:41:30.117Z,87545.78
2022-11-04T08:44:14.852Z,87548.69
2022-11-04T08:46:59.716Z,87534.72
2022-11-04T08:49:44.539Z,87530.13
2022-11-04T08:52:29.406Z,87537.00
2022-11-04T08:55:14.183Z,87522.50
2022-11-04T08:57:58.961Z,87517.56
2022-11-04T09:00:43.893Z,87509.34
2022-11-04T09:03:28.662Z,87502.09
2022-11-04T09:06:13.342Z,87510.00
2022-11-04T09:08:58.167Z,87498.69
2022-11-04T09:11:42.971Z,87505.00
2022-11-04T09:14:27.680Z,87501.06
2022-11-04T09:17:12.495Z,87510.38
2022-11-04T09:19:57.351Z,87501.13
2022-11-04T09:22:45.794Z,87498.06
2022-11-04T09:25:31.027Z,87494.06
2022-11-04T09:28:15.729Z,87490.84
2022-11-04T09:31:00.444Z,87494.00
2022-11-04T09:33:45.221Z,87496.38
2022-11-04T09:36:29.964Z,87503.44
2022-11-04T09:39:14.720Z,87500.09
2022-11-04T09:41:59.418Z,87497.44
2022-11-04T09:45:07.302Z,87499.84
2022-11-04T09:47:49.230Z,87498.81
2022-11-04T09:50:33.996Z,87492.63
2022-11-04T09:53:18.919Z,87483.19
2022-11-04T09:56:03.643Z,87488.31
2022-11-04T09:58:48.530Z,87482.88
2022-11-04T10:01:33.259Z,87481.19
2022-11-04T10:04:18.409Z,87472.41
2022-11-04T10:07:03.072Z,87468.09
2022-11-04T10:09:47.719Z,87467.00
2022-11-04T10:12:32.326Z,87462.44
2022-11-04T10:15:18.006Z,87465.41
2022-11-04T10:18:02.795Z,87467.81
2022-11-04T10:20:47.511Z,87467.28
2022-11-04T10:23:32.252Z,87461.25
2022-11-04T10:26:16.957Z,87465.84
2022-11-04T10:29:01.848Z,87458.72
2022-11-04T10:31:46.550Z,87452.13
2022-11-04T10:34:31.327Z,87460.91
2022-11-04T10:37:16.196Z,87455.88
2022-11-04T10:40:00.904Z,87451.97
2022-11-04T10:42:45.842Z,87455.22
2022-11-04T10:45:30.492Z,87448.72
2022-11-04T10:48:15.251Z,87444.84
2022-11-04T10:50:59.866Z,87447.41
2022-11-04T10:53:44.788Z,87432.88
2022-11-04T10:56:29.445Z,87439.78
2022-11-04T10:59:19.905Z,87426.59
2022-11-04T11:02:05.298Z,87426.41
2022-11-04T11:04:49.939Z,87428.06
2022-11-04T11:07:34.669Z,87422.09
2022-11-04T11:10:19.405Z,87426.84
2022-11-04T11:13:04.264Z,87426.75
2022-11-04T11:15:48.960Z,87419.38
2022-11-04T11:18:33.763Z,87418.13
2022-11-04T11:21:18.476Z,87420.84
2022-11-04T11:24:03.250Z,87415.53
2022-11-04T11:26:48.094Z,87422.53
2022-11-04T11:29:32.704Z,87419.94
2022-11-04T11:32:17.501Z,87421.19
2022-11-04T11:35:04.354Z,87425.66
2022-11-04T11:37:51.423Z,87423.84
2022-11-04T11:40:36.265Z,87421.47
2022-11-04T11:43:21.165Z,87421.78
2022-11-04T11:46:05.963Z,87415.91
2022-11-04T11:48:50.670Z,87409.78
2022-11-04T11:51:35.323Z,87408.09
2022-11-04T11:54:20.177Z,87405.56
2022-11-04T11:57:13.728Z,87399.84
2022-11-04T12:03:03.880Z,87399.81
2022-11-04T12:11:58.785Z,87403.03
2022-11-04T12:14:48.546Z,87390.19
2022-11-04T12:17:34.086Z,87400.53
2022-11-04T12:20:18.715Z,87404.53
2022-11-04T12:23:03.551Z,87409.78
2022-11-04T12:25:48.346Z,87406.66
2022-11-04T12:28:33.363Z,87409.44
2022-11-04T12:31:18.068Z,87407.81
2022-11-04T12:34:02.917Z,87408.22
2022-11-04T12:36:47.564Z,87407.53
2022-11-04T12:39:32.386Z,87408.44
2022-11-04T12:42:21.910Z,87402.88
2022-11-04T12:45:07.721Z,87403.06
2022-11-04T12:47:52.586Z,87405.00
2022-11-04T12:50:37.264Z,87404.69
2022-11-04T12:53:21.906Z,87400.25
2022-11-04T12:56:06.824Z,87399.69
2022-11-04T12:58:51.562Z,87403.22
2022-11-04T13:01:36.518Z,87398.97
2022-11-04T13:04:21.607Z,87410.22
2022-11-04T13:07:06.351Z,87405.59
2022-11-04T13:09:51.129Z,87405.91
2022-11-04T13:12:36.032Z,87406.50
2022-11-04T13:15:20.795Z,87394.81
2022-11-04T13:18:05.576Z,87408.16
2022-11-04T13:20:50.329Z,87405.03
2022-11-04T13:23:35.095Z,87405.25
2022-11-04T13:26:19.869Z,87398.91
2022-11-04T13:29:08.840Z,87394.53
2022-11-04T13:31:53.894Z,87401.22
2022-11-04T13:34:38.585Z,87402.00
2022-11-04T13:37:23.242Z,87398.63
2022-11-04T13:40:08.284Z,87400.09
2022-11-04T13:42:52.875Z,87398.78
2022-11-04T13:45:37.672Z,87405.94
2022-11-04T13:48:22.308Z,87407.13
2022-11-04T13:51:07.118Z,87419.00
2022-11-04T13:53:51.861Z,87412.56
2022-11-04T13:56:36.759Z,87414.47
2022-11-04T13:59:21.609Z,87411.63
2022-11-04T14:02:07.031Z,87418.41
2022-11-04T14:04:52.232Z,87424.13
2022-11-04T14:07:36.772Z,87425.75
2022-11-04T14:10:21.565Z,87424.03
2022-11-04T14:13:06.495Z,87424.91
2022-11-04T14:15:51.568Z,87429.34
2022-11-04T14:18:36.221Z,87428.41
2022-11-04T14:21:21.147Z,87431.44
2022-11-04T14:24:05.856Z,87428.53
2022-11-04T14:26:50.693Z,87433.22
2022-11-04T14:29:35.499Z,87436.53
2022-11-04T14:32:20.185Z,87432.63
2022-11-04T14:35:04.886Z,87447.66
2022-11-04T14:37:53.262Z,87449.31
2022-11-04T14:40:40.459Z,87452.41
2022-11-04T14:43:25.228Z,87456.88
2022-11-04T14:46:09.882Z,87459.31
2022-11-04T14:48:54.771Z,87467.47
2022-11-04T14:51:39.362Z,87473.94
2022-11-04T14:54:24.180Z,87476.25
2022-11-04T14:57:08.900Z,87474.84
2022-11-04T14:59:53.664Z,87475.22
2022-11-04T15:02:38.349Z,87484.59
2022-11-04T15:05:23.100Z,87485.47
2022-11-04T15:08:07.896Z,87491.03
2022-11-04T15:10:52.608Z,87495.56
2022-11-04T15:13:37.438Z,87495.94
2022-11-04T15:16:22.232Z,87508.09
2022-11-04T15:19:06.960Z,87504.13
2022-11-04T15:21:51.728Z,87510.34
2022-11-04T15:24:36.465Z,87519.50
2022-11-04T15:27:21.129Z,87529.34
2022-11-04T15:30:05.928Z,87535.03
2022-11-04T15:32:50.673Z,87532.09
2022-11-04T15:35:35.415Z,87545.97
2022-11-04T15:38:20.191Z,87547.69
2022-11-04T15:41:04.979Z,87561.19
2022-11-04T15:43:49.864Z,87563.97
2022-11-04T15:46:34.582Z,87568.66
2022-11-04T15:49:19.427Z,87567.59
2022-11-04T15:52:04.127Z,87577.81
2022-11-04T15:54:48.789Z,87580.25
2022-11-04T15:57:33.502Z,87587.00
2022-11-04T16:00:18.265Z,87590.66
2022-11-04T16:03:03.007Z,87597.94
2022-11-04T16:05:47.741Z,87598.28
2022-11-04T16:08:32.523Z,87606.41
2022-11-04T16:11:17.526Z,87609.91
2022-11-04T16:14:02.617Z,87613.34
2022-11-04T16:16:47.469Z,87606.59
2022-11-04T16:19:32.272Z,87607.47
2022-11-04T16:22:17.006Z,87613.34
2022-11-04T16:25:01.861Z,87626.16
2022-11-04T16:27:46.477Z,87617.13
2022-11-04T16:30:31.351Z,87624.25
2022-11-04T16:33:16.024Z,87622.69
2022-11-04T16:36:00.780Z,87624.94
2022-11-04T16:38:45.571Z,87625.81
2022-11-04T16:41:30.396Z,87624.09
2022-11-04T16:44:15.274Z,87631.69
2022-11-04T16:46:59.992Z,87635.50
2022-11-04T16:49:44.735Z,87637.41
2022-11-04T16:52:29.471Z,87640.00
2022-11-04T16:55:14.225Z,87640.50
2022-11-04T16:57:59.011Z,87640.31
2022-11-04T17:00:43.812Z,87644.28
2022-11-04T17:03:28.949Z,87652.78
2022-11-04T17:06:13.713Z,87651.56
2022-11-04T17:08:58.653Z,87656.63
2022-11-04T17:11:43.382Z,87654.38
2022-11-04T17:14:28.165Z,87663.50
2022-11-04T17:17:12.860Z,87667.47
2022-11-04T17:19:57.895Z,87667.94
2022-11-04T17:22:42.649Z,87678.78
2022-11-04T17:25:27.362Z,87681.66
2022-11-04T17:28:12.088Z,87681.25
2022-11-04T17:30:56.853Z,87679.69
2022-11-04T17:33:41.670Z,87700.25
2022-11-04T17:36:26.504Z,87698.88
2022-11-04T17:39:11.255Z,87709.56
2022-11-04T17:41:56.081Z,87708.00
2022-11-04T17:44:40.964Z,87715.59
2022-11-04T17:47:25.663Z,87722.59
2022-11-04T17:50:10.451Z,87722.88
2022-11-04T17:52:55.163Z,87734.56
2022-11-04T17:55:39.914Z,87742.72
2022-11-04T17:58:24.657Z,87746.88
2022-11-04T18:01:09.547Z,87754.19
2022-11-04T18:03:54.340Z,87757.69
2022-11-04T18:06:39.774Z,87761.78
2022-11-04T18:09:24.832Z,87765.06
2022-11-04T18:12:09.677Z,87771.66
2022-11-04T18:14:54.460Z,87766.47
2022-11-04T18:17:39.114Z,87775.09
2022-11-04T18:20:24.000Z,87785.97
2022-11-04T18:23:09.206Z,87787.56
2022-11-04T18:25:54.099Z,87791.84
2022-11-04T18:28:38.856Z,87787.06
2022-11-04T18:31:23.598Z,87791.94
2022-11-04T18:34:08.529Z,87802.31
2022-11-04T18:36:53.115Z,87801.00
2022-11-04T18:39:38.008Z,87810.97
2022-11-04T18:42:22.879Z,87811.34
2022-11-04T18:45:07.674Z,87813.38
2022-11-04T18:47:52.524Z,87819.56
2022-11-04T18:50:37.321Z,87826.13
2022-11-04T18:53:26.844Z,87823.53
2022-11-04T18:56:12.242Z,87830.69
2022-11-04T18:58:57.139Z,87833.19
2022-11-04T19:01:41.882Z,87832.28
2022-11-04T19:04:26.891Z,87832.78
2022-11-04T19:07:11.663Z,87842.38
2022-11-04T19:09:56.380Z,87841.28
2022-11-04T19:12:41.080Z,87845.25
2022-11-04T19:15:25.843Z,87841.75
2022-11-04T19:18:11.051Z,87839.88
2022-11-04T19:20:56.447Z,87848.97
2022-11-04T19:23:41.213Z,87847.59
2022-11-04T19:26:25.952Z,87858.25
2022-11-04T19:29:10.702Z,87861.75
2022-11-04T19:31:55.335Z,87870.50
2022-11-04T19:34:40.061Z,87874.09
2022-11-04T19:37:24.880Z,87878.41
2022-11-04T19:40:09.637Z,87891.75
2022-11-04T19:42:54.456Z,87899.59
2022-11-04T19:45:39.058Z,87902.38
2022-11-04T19:48:23.886Z,87904.47
2022-11-04T19:51:08.719Z,87914.13
2022-11-04T19:53:53.612Z,87907.34
2022-11-04T19:56:38.777Z,87916.72
2022-11-04T19:59:23.466Z,87934.34
2022-11-04T20:02:08.451Z,87937.81
2022-11-04T20:04:53.601Z,87937.63
2022-11-04T20:07:38.465Z,87948.84
2022-11-04T20:10:23.125Z,87953.53
2022-11-04T20:13:08.087Z,87954.53
2022-11-04T20:15:52.858Z,87959.81
2022-11-04T20:18:37.647Z,87962.38
2022-11-04T20:21:22.392Z,87966.72
2022-11-04T20:24:07.378Z,87977.59
2022-11-04T20:26:52.210Z,87978.47
2022-11-04T20:29:36.996Z,87975.56
2022-11-04T20:32:21.841Z,87970.25
2022-11-04T20:35:06.599Z,87971.19
2022-11-04T20:37:51.500Z,87975.44
2022-11-04T20:40:36.245Z,87977.91
2022-11-04T20:43:21.009Z,87977.09
2022-11-04T20:46:05.768Z,87969.41
2022-11-04T20:48:50.504Z,87979.75
2022-11-04T20:51:35.150Z,87988.28
2022-11-04T20:54:19.956Z,87983.72
2022-11-04T20:57:04.792Z,87990.56
2022-11-04T20:59:49.828Z,87997.91
2022-11-04T21:02:34.683Z,87998.88
2022-11-04T21:05:19.883Z,88001.47
2022-11-04T21:08:04.632Z,87999.53
2022-11-04T21:10:49.303Z,88004.56
2022-11-04T21:13:34.215Z,88007.31
2022-11-04T21:16:19.350Z,88001.91
2022-11-04T21:19:04.211Z,88012.81
2022-11-04T21:21:48.818Z,88020.00
2022-11-04T21:24:38.836Z,88022.84
2022-11-04T21:27:24.114Z,88029.78
2022-11-04T21:30:08.796Z,88038.34
2022-11-04T21:32:53.497Z,88036.66
2022-11-04T21:35:38.465Z,88040.97
2022-11-04T21:38:23.168Z,88050.47
2022-11-04T21:41:08.032Z,88042.91
2022-11-04T21:43:52.610Z,88044.31
2022-11-04T21:46:37.332Z,88045.22
2022-11-04T21:49:22.013Z,88056.38
2022-11-04T21:52:06.923Z,88058.00
2022-11-04T21:54:51.681Z,88061.59
2022-11-04T21:57:36.530Z,88059.13
2022-11-04T22:00:21.323Z,88061.47
2022-11-04T22:03:06.244Z,88063.44
2022-11-04T22:05:51.402Z,88074.28
2022-11-04T22:08:36.095Z,88078.28
2022-11-04T22:11:21.010Z,88080.56
2022-11-04T22:14:05.807Z,88075.41
2022-11-04T22:16:50.601Z,88083.69
2022-11-04T22:19:35.348Z,88083.81
2022-11-04T22:22:20.112Z,88085.16
2022-11-04T22:25:04.799Z,88092.50
2022-11-04T22:27:49.499Z,88093.78
2022-11-04T22:30:34.233Z,88098.69
2022-11-04T22:33:18.727Z,88098.31
2022-11-04T22:36:03.634Z,88098.81
2022-11-04T22:38:48.339Z,88100.69
2022-11-04T22:41:33.275Z,88105.00
2022-11-04T22:44:18.086Z,88101.34
2022-11-04T22:47:02.814Z,88105.16
2022-11-04T22:49:47.572Z,88115.22
2022-11-04T22:52:32.393Z,88113.22
2022-11-04T22:55:17.066Z,88114.50
2022-11-04T22:58:01.980Z,88111.50
2022-11-04T23:00:47.066Z,88118.97
2022-11-04T23:03:32.208Z,88124.50
2022-11-04T23:06:17.395Z,88137.84
2022-11-04T23:09:02.229Z,88140.09
2022-11-04T23:11:47.033Z,88143.78
2022-11-04T23:14:31.733Z,88147.88
2022-11-04T23:17:16.511Z,88151.81
2022-11-04T23:20:01.293Z,88149.06
2022-11-04T23:22:46.214Z,88155.69
2022-11-04T23:25:31.020Z,88151.75
2022-11-04T23:28:15.721Z,88150.78
2022-11-04T23:31:00.567Z,88150.47
2022-11-04T23:33:45.274Z,88148.31
2022-11-04T23:36:30.001Z,88147.63
2022-11-04T23:39:14.811Z,88150.41
2022-11-04T23:41:59.564Z,88145.22
2022-11-04T23:44:44.350Z,88147.53
2022-11-04T23:47:29.239Z,88148.72
2022-11-04T23:50:13.876Z,88146.56
2022-11-04T23:52:58.689Z,88151.28
2022-11-04T23:55:43.505Z,88167.03
2022-11-04T23:58:28.431Z,88166.38
